createdAt,value
2022-12-10T00:01:53.440Z,94.27
2022-12-10T00:04:22.099Z,81.40
2022-12-10T00:06:50.312Z,89.83
2022-12-10T00:09:21.612Z,92.97
2022-12-10T00:11:49.920Z,76.03
2022-12-10T00:14:17.814Z,86.77
2022-12-10T00:16:45.533Z,88.80
2022-12-10T00:19:13.801Z,95.20
2022-12-10T00:21:41.811Z,85.37
2022-12-10T00:24:12.033Z,93.83
2022-12-10T00:26:51.596Z,85.57
2022-12-10T00:29:20.701Z,79.93
2022-12-10T00:31:48.451Z,98.30
2022-12-10T00:34:16.219Z,88.27
2022-12-10T00:36:51.811Z,90.63
2022-12-10T00:39:22.360Z,75.57
2022-12-10T00:41:51.056Z,80.77
2022-12-10T00:44:21.430Z,77.90
2022-12-10T00:46:49.241Z,80.90
2022-12-10T00:49:18.696Z,86.77
2022-12-10T00:51:48.053Z,77.70
2022-12-10T00:54:16.507Z,91.53
2022-12-10T00:56:46.426Z,94.20
2022-12-10T00:59:20.447Z,81.60
2022-12-10T01:01:49.454Z,87.37
2022-12-10T01:04:22.894Z,77.47
2022-12-10T01:06:55.276Z,73.90
2022-12-10T01:09:30.623Z,80.60
2022-12-10T01:12:04.580Z,76.73
2022-12-10T01:14:40.774Z,81.57
2022-12-10T01:17:11.417Z,89.53
2022-12-10T01:19:39.598Z,89.97
2022-12-10T01:22:07.204Z,87.80
2022-12-10T01:24:37.686Z,78.73
2022-12-10T01:27:06.906Z,84.30
2022-12-10T01:29:34.551Z,79.93
2022-12-10T01:32:02.335Z,92.90
2022-12-10T01:34:31.447Z,75.37
2022-12-10T01:36:59.177Z,67.10
2022-12-10T01:39:28.772Z,85.23
2022-12-10T01:42:02.451Z,94.47
2022-12-10T01:44:31.273Z,80.53
2022-12-10T01:47:02.620Z,84.63
2022-12-10T01:49:41.754Z,82.97
2022-12-10T01:52:15.312Z,79.87
2022-12-10T01:54:47.780Z,86.50
2022-12-10T01:57:22.695Z,77.53
2022-12-10T02:00:04.499Z,72.60
2022-12-10T02:03:09.178Z,73.70
2022-12-10T02:05:59.239Z,78.63
2022-12-10T02:09:33.887Z,93.50
2022-12-10T02:12:45.468Z,88.60
2022-12-10T02:16:01.967Z,82.07
2022-12-10T02:18:58.108Z,74.87
2022-12-10T02:21:42.845Z,77.97
2022-12-10T02:24:28.520Z,82.67
2022-12-10T02:27:26.168Z,75.37
2022-12-10T02:29:58.983Z,80.63
2022-12-10T02:32:42.662Z,78.90
2022-12-10T02:35:28.390Z,77.37
2022-12-10T02:38:34.511Z,83.10
2022-12-10T02:41:17.495Z,76.80
2022-12-10T02:43:53.308Z,87.23
2022-12-10T02:46:25.607Z,77.27
2022-12-10T02:48:55.394Z,78.17
2022-12-10T02:51:23.259Z,77.60
2022-12-10T02:54:35.597Z,74.70
2022-12-10T02:57:56.155Z,68.90
2022-12-10T03:00:26.669Z,94.47
2022-12-10T03:03:24.290Z,76.93
2022-12-10T03:06:47.641Z,87.47
2022-12-10T03:09:41.178Z,83.70
2022-12-10T03:12:32.609Z,84.23
2022-12-10T03:15:08.964Z,90.60
2022-12-10T03:17:42.738Z,92.00
2022-12-10T03:20:17.044Z,98.17
2022-12-10T03:22:49.385Z,89.80
2022-12-10T03:25:28.013Z,90.17
2022-12-10T03:28:01.556Z,84.30
2022-12-10T03:30:34.584Z,95.10
2022-12-10T03:33:03.729Z,87.50
2022-12-10T03:35:32.545Z,90.63
2022-12-10T03:38:00.409Z,79.03
2022-12-10T03:40:28.770Z,90.57
2022-12-10T03:42:56.335Z,81.60
2022-12-10T03:45:23.965Z,79.93
2022-12-10T03:47:51.607Z,79.53
2022-12-10T03:50:19.577Z,76.73
2022-12-10T03:52:47.252Z,86.77
2022-12-10T03:55:15.015Z,81.27
2022-12-10T03:57:43.734Z,83.00
2022-12-10T04:00:13.296Z,92.50
2022-12-10T04:02:43.373Z,91.57
2022-12-10T04:05:11.296Z,83.33
2022-12-10T04:07:38.911Z,91.30
2022-12-10T04:10:08.793Z,105.73
2022-12-10T04:12:36.556Z,89.57
2022-12-10T04:15:23.390Z,85.13
2022-12-10T04:17:50.994Z,91.13
2022-12-10T04:20:37.585Z,86.87
2022-12-10T04:23:24.052Z,85.37
2022-12-10T04:26:10.199Z,90.87
2022-12-10T04:28:38.323Z,79.17
2022-12-10T04:31:06.034Z,88.23
2022-12-10T04:33:33.608Z,77.67
2022-12-10T04:36:01.263Z,69.50
2022-12-10T04:38:28.801Z,90.53
2022-12-10T04:40:56.440Z,82.07
2022-12-10T04:43:24.560Z,98.97
2022-12-10T04:45:56.325Z,82.40
2022-12-10T04:48:23.933Z,82.23
2022-12-10T04:50:51.528Z,98.70
2022-12-10T04:53:19.022Z,85.57
2022-12-10T04:55:46.571Z,92.00
2022-12-10T04:58:14.222Z,83.00
2022-12-10T05:00:41.816Z,90.70
2022-12-10T05:03:09.303Z,81.83
2022-12-10T05:05:37.708Z,94.53
2022-12-10T05:08:05.515Z,85.40
2022-12-10T05:10:37.145Z,71.43
2022-12-10T05:13:04.743Z,81.83
2022-12-10T05:15:32.336Z,85.57
2022-12-10T05:17:59.956Z,99.57
2022-12-10T05:20:27.460Z,85.40
2022-12-10T05:23:13.996Z,103.17
2022-12-10T05:25:54.216Z,84.77
2022-12-10T05:28:23.876Z,85.10
2022-12-10T05:30:51.918Z,89.17
2022-12-10T05:33:20.295Z,101.50
2022-12-10T05:36:05.284Z,94.40
2022-12-10T05:38:35.816Z,92.97
2022-12-10T05:41:16.719Z,80.00
2022-12-10T05:43:46.513Z,78.87
2022-12-10T05:46:24.628Z,88.70
2022-12-10T05:48:54.046Z,83.20
2022-12-10T05:51:29.143Z,90.87
2022-12-10T05:54:02.720Z,95.07
2022-12-10T05:56:31.620Z,99.70
2022-12-10T05:59:04.238Z,102.07
2022-12-10T06:01:36.276Z,90.23
2022-12-10T06:04:06.669Z,90.30
2022-12-10T06:06:40.069Z,97.07
2022-12-10T06:09:14.334Z,97.93
2022-12-10T06:11:42.923Z,96.07
2022-12-10T06:14:11.954Z,96.27
2022-12-10T06:16:42.433Z,103.47
2022-12-10T06:19:10.553Z,93.77
2022-12-10T06:21:39.408Z,94.00
2022-12-10T06:24:07.973Z,98.27
2022-12-10T06:26:35.966Z,101.23
2022-12-10T06:29:05.877Z,101.90
2022-12-10T06:31:33.784Z,95.97
2022-12-10T06:34:01.438Z,98.33
2022-12-10T06:36:29.032Z,90.10
2022-12-10T06:38:56.624Z,101.77
2022-12-10T06:41:24.955Z,92.60
2022-12-10T06:43:53.131Z,94.97
2022-12-10T06:46:22.417Z,102.53
2022-12-10T06:48:50.069Z,100.20
2022-12-10T06:51:19.727Z,111.10
2022-12-10T06:53:48.428Z,122.67
2022-12-10T06:56:21.560Z,121.20
2022-12-10T06:58:50.239Z,129.60
2022-12-10T07:01:29.188Z,147.63
2022-12-10T07:03:58.639Z,131.57
2022-12-10T07:06:32.033Z,130.30
2022-12-10T07:09:00.618Z,150.47
2022-12-10T07:11:28.194Z,143.73
2022-12-10T07:13:55.832Z,140.37
2022-12-10T07:16:32.702Z,127.30
2022-12-10T07:19:03.781Z,128.43
2022-12-10T07:21:36.955Z,142.23
2022-12-10T07:24:15.927Z,124.17
2022-12-10T07:26:46.932Z,124.60
2022-12-10T07:29:22.466Z,138.63
2022-12-10T07:31:51.191Z,110.80
2022-12-10T07:34:19.428Z,157.40
2022-12-10T07:36:47.011Z,146.40
2022-12-10T07:39:18.693Z,132.63
2022-12-10T07:41:55.908Z,124.90
2022-12-10T07:44:27.082Z,138.83
2022-12-10T07:46:57.210Z,150.93
2022-12-10T07:49:24.883Z,140.83
2022-12-10T07:51:53.409Z,141.43
2022-12-10T07:54:21.088Z,127.27
2022-12-10T07:56:48.783Z,140.67
2022-12-10T07:59:16.392Z,139.40
2022-12-10T08:01:44.323Z,163.93
2022-12-10T08:04:12.122Z,169.07
2022-12-10T08:06:39.751Z,155.97
2022-12-10T08:09:07.957Z,174.60
2022-12-10T08:11:35.492Z,162.57
2022-12-10T08:14:03.063Z,144.33
2022-12-10T08:16:32.485Z,167.07
2022-12-10T08:19:03.124Z,147.23
2022-12-10T08:21:34.175Z,147.00
2022-12-10T08:24:02.602Z,152.97
2022-12-10T08:26:34.563Z,174.83
2022-12-10T08:29:03.841Z,180.47
2022-12-10T08:31:37.171Z,156.23
2022-12-10T08:34:15.569Z,188.87
2022-12-10T08:36:45.095Z,182.27
2022-12-10T08:39:17.514Z,155.97
2022-12-10T08:41:47.471Z,193.10
2022-12-10T08:44:15.568Z,155.47
2022-12-10T08:46:43.153Z,161.27
2022-12-10T08:49:10.767Z,164.17
2022-12-10T08:51:38.426Z,176.43
2022-12-10T08:54:06.193Z,154.93
2022-12-10T08:56:33.864Z,161.20
2022-12-10T08:59:02.198Z,143.13
2022-12-10T09:01:29.852Z,143.60
2022-12-10T09:03:57.516Z,160.83
2022-12-10T09:06:26.279Z,150.73
2022-12-10T09:08:55.615Z,136.87
2022-12-10T09:11:34.939Z,155.90
2022-12-10T09:14:03.817Z,148.00
2022-12-10T09:16:37.751Z,142.77
2022-12-10T09:19:06.871Z,146.97
2022-12-10T09:21:34.797Z,127.37
2022-12-10T09:24:02.569Z,139.00
2022-12-10T09:26:30.241Z,133.87
2022-12-10T09:28:59.018Z,139.47
2022-12-10T09:31:27.584Z,149.83
2022-12-10T09:33:55.941Z,136.80
2022-12-10T09:36:28.646Z,143.50
2022-12-10T09:38:59.620Z,141.73
2022-12-10T09:41:55.381Z,139.50
2022-12-10T09:44:50.567Z,128.70
2022-12-10T09:47:18.977Z,127.13
2022-12-10T09:50:20.799Z,128.90
2022-12-10T09:52:50.354Z,127.27
2022-12-10T09:55:32.614Z,122.40
2022-12-10T09:58:03.973Z,124.53
2022-12-10T10:00:39.387Z,133.67
2022-12-10T10:03:16.937Z,129.30
2022-12-10T10:05:57.668Z,129.40
2022-12-10T10:09:01.211Z,133.37
2022-12-10T10:11:36.854Z,139.20
2022-12-10T10:14:29.227Z,119.73
2022-12-10T10:17:28.398Z,127.63
2022-12-10T10:19:59.034Z,111.00
2022-12-10T10:22:27.623Z,110.37
2022-12-10T10:24:55.385Z,107.40
2022-12-10T10:27:33.496Z,122.17
2022-12-10T10:30:06.006Z,114.07
2022-12-10T10:32:42.180Z,101.33
2022-12-10T10:35:34.928Z,117.27
2022-12-10T10:38:19.966Z,101.50
2022-12-10T10:41:03.309Z,106.27
2022-12-10T10:43:46.122Z,97.43
2022-12-10T10:46:24.688Z,105.80
2022-12-10T10:48:53.189Z,81.33
2022-12-10T10:51:26.613Z,93.80
2022-12-10T10:53:57.410Z,92.43
2022-12-10T10:56:42.667Z,85.00
2022-12-10T10:59:19.247Z,92.27
2022-12-10T11:02:30.817Z,86.83
2022-12-10T11:05:07.933Z,81.57
2022-12-10T11:07:41.782Z,87.30
2022-12-10T11:10:27.713Z,94.50
2022-12-10T11:13:23.395Z,75.13
2022-12-10T11:16:26.055Z,88.80
2022-12-10T11:19:05.592Z,87.73
2022-12-10T11:21:36.102Z,89.90
2022-12-10T11:24:13.601Z,85.13
2022-12-10T11:27:23.703Z,92.37
2022-12-10T11:30:12.726Z,95.53
2022-12-10T11:33:55.809Z,89.97
2022-12-10T11:37:03.992Z,81.57
2022-12-10T11:40:04.030Z,93.30
2022-12-10T11:43:05.099Z,85.17
2022-12-10T11:46:08.938Z,88.30
2022-12-10T11:49:04.668Z,79.90
2022-12-10T11:52:16.089Z,82.07
2022-12-10T11:55:28.169Z,86.87
2022-12-10T11:58:59.955Z,81.20
2022-12-10T12:02:13.549Z,81.03
2022-12-10T12:05:42.202Z,82.70
2022-12-10T12:09:14.648Z,74.83
2022-12-10T12:12:18.065Z,83.83
2022-12-10T12:15:50.476Z,72.90
2022-12-10T12:18:53.720Z,79.17
2022-12-10T12:21:22.420Z,76.23
2022-12-10T12:24:29.549Z,79.00
2022-12-10T12:27:46.226Z,67.80
2022-12-10T12:30:23.356Z,70.00
2022-12-10T12:33:40.994Z,69.97
2022-12-10T12:36:32.065Z,66.83
2022-12-10T12:39:27.503Z,71.87
2022-12-10T12:42:14.712Z,72.63
2022-12-10T12:45:23.325Z,57.60
2022-12-10T12:48:30.464Z,64.70
2022-12-10T12:51:14.363Z,59.17
2022-12-10T12:53:42.070Z,62.20
2022-12-10T12:56:55.417Z,64.30
2022-12-10T13:00:11.270Z,57.37
2022-12-10T13:03:20.125Z,56.47
2022-12-10T13:05:48.501Z,52.00
2022-12-10T13:08:19.252Z,61.30
2022-12-10T13:11:00.748Z,58.83
2022-12-10T13:13:42.906Z,57.40
2022-12-10T13:16:49.197Z,51.00
2022-12-10T13:19:22.626Z,47.20
2022-12-10T13:22:07.591Z,57.50
2022-12-10T13:25:05.520Z,48.23
2022-12-10T13:27:36.460Z,48.60
2022-12-10T13:30:38.442Z,49.90
2022-12-10T13:34:00.739Z,49.13
2022-12-10T13:36:34.399Z,54.83
2022-12-10T13:39:08.068Z,50.07
2022-12-10T13:42:29.915Z,50.03
2022-12-10T13:45:25.778Z,45.77
2022-12-10T13:48:32.317Z,47.03
2022-12-10T13:51:58.415Z,46.47
2022-12-10T13:55:20.378Z,53.00
2022-12-10T13:58:59.601Z,48.80
2022-12-10T14:02:55.198Z,49.50
2022-12-10T14:06:14.298Z,52.10
2022-12-10T14:09:27.329Z,50.43
2022-12-10T14:12:22.868Z,53.57
2022-12-10T14:15:17.638Z,56.07
2022-12-10T14:17:47.927Z,58.10
2022-12-10T14:20:26.829Z,50.00
2022-12-10T14:23:19.747Z,49.97
2022-12-10T14:25:48.956Z,56.67
2022-12-10T14:28:19.849Z,56.33
2022-12-10T14:30:51.954Z,45.40
2022-12-10T14:33:25.833Z,50.40
2022-12-10T14:35:55.306Z,44.67
2022-12-10T14:38:38.043Z,45.20
2022-12-10T14:41:26.139Z,45.83
2022-12-10T14:43:55.292Z,46.87
2022-12-10T14:46:32.589Z,57.67
2022-12-10T14:49:01.142Z,52.90
2022-12-10T14:51:38.113Z,50.53
2022-12-10T14:54:29.838Z,71.17
2022-12-10T14:57:03.721Z,63.93
2022-12-10T15:00:08.935Z,69.73
2022-12-10T15:02:43.115Z,79.13
2022-12-10T15:05:33.613Z,200.70
2022-12-10T15:08:19.658Z,183.50
2022-12-10T15:10:58.176Z,251.23
2022-12-10T15:13:52.244Z,83.43
2022-12-10T15:16:40.331Z,61.77
2022-12-10T15:19:35.133Z,60.73
2022-12-10T15:22:28.417Z,56.73
2022-12-10T15:24:56.822Z,54.93
2022-12-10T15:27:27.241Z,57.07
2022-12-10T15:29:54.964Z,59.97
2022-12-10T15:32:32.186Z,62.10
2022-12-10T15:35:18.084Z,58.10
2022-12-10T15:37:52.401Z,55.63
2022-12-10T15:40:31.285Z,55.73
2022-12-10T15:43:31.525Z,64.10
2022-12-10T15:46:00.972Z,52.30
2022-12-10T15:48:31.662Z,52.70
2022-12-10T15:50:59.859Z,52.17
2022-12-10T15:53:39.334Z,58.47
2022-12-10T15:56:07.718Z,58.80
2022-12-10T15:58:35.447Z,51.80
2022-12-10T16:01:04.098Z,54.53
2022-12-10T16:03:33.816Z,45.53
2022-12-10T16:06:01.395Z,50.13
2022-12-10T16:08:31.902Z,46.10
2022-12-10T16:11:19.326Z,58.23
2022-12-10T16:13:57.900Z,56.63
2022-12-10T16:16:27.661Z,56.77
2022-12-10T16:18:55.472Z,50.93
2022-12-10T16:21:23.618Z,57.40
2022-12-10T16:23:51.485Z,48.50
2022-12-10T16:26:23.692Z,52.73
2022-12-10T16:28:52.499Z,58.73
2022-12-10T16:31:23.098Z,57.00
2022-12-10T16:33:52.976Z,58.87
2022-12-10T16:36:20.960Z,68.17
2022-12-10T16:38:48.550Z,51.70
2022-12-10T16:41:25.142Z,62.23
2022-12-10T16:43:53.158Z,53.43
2022-12-10T16:46:21.047Z,56.73
2022-12-10T16:48:48.591Z,55.40
2022-12-10T16:51:30.942Z,58.90
2022-12-10T16:53:59.358Z,63.70
2022-12-10T16:56:27.109Z,60.53
2022-12-10T16:58:54.814Z,58.27
2022-12-10T17:01:30.273Z,54.70
2022-12-10T17:04:00.112Z,59.53
2022-12-10T17:06:29.568Z,54.97
2022-12-10T17:08:57.309Z,60.73
2022-12-10T17:11:51.411Z,60.13
2022-12-10T17:14:37.127Z,56.93
2022-12-10T17:17:06.412Z,55.80
2022-12-10T17:19:41.455Z,57.10
2022-12-10T17:22:11.112Z,54.07
2022-12-10T17:24:38.946Z,52.70
2022-12-10T17:27:22.524Z,56.30
2022-12-10T17:29:56.171Z,52.47
2022-12-10T17:32:24.463Z,48.83
2022-12-10T17:34:52.110Z,49.33
2022-12-10T17:37:21.355Z,48.73
2022-12-10T17:39:49.990Z,54.53
2022-12-10T17:42:17.605Z,48.37
2022-12-10T17:44:45.149Z,63.60
2022-12-10T17:47:25.912Z,57.23
2022-12-10T17:49:53.831Z,54.97
2022-12-10T17:52:21.794Z,54.90
2022-12-10T17:54:49.453Z,53.33
2022-12-10T17:57:26.073Z,50.63
2022-12-10T17:59:54.243Z,63.20
2022-12-10T18:02:21.892Z,58.97
2022-12-10T18:04:49.444Z,65.37
2022-12-10T18:07:20.240Z,50.63
2022-12-10T18:09:47.807Z,52.67
2022-12-10T18:12:15.461Z,57.90
2022-12-10T18:14:43.608Z,50.43
2022-12-10T18:17:17.912Z,58.40
2022-12-10T18:19:51.773Z,71.23
2022-12-10T18:22:21.057Z,57.70
2022-12-10T18:24:48.768Z,64.83
2022-12-10T18:27:19.184Z,53.37
2022-12-10T18:29:47.412Z,61.67
2022-12-10T18:32:15.289Z,64.57
2022-12-10T18:34:43.154Z,70.80
2022-12-10T18:37:12.245Z,68.43
2022-12-10T18:39:40.100Z,67.57
2022-12-10T18:42:07.957Z,68.23
2022-12-10T18:44:35.487Z,66.17
2022-12-10T18:47:03.108Z,69.03
2022-12-10T18:49:32.682Z,71.63
2022-12-10T18:52:01.140Z,68.43
2022-12-10T18:54:29.826Z,66.87
2022-12-10T18:57:31.641Z,63.87
2022-12-10T18:59:46.115Z,63.30
2022-12-10T19:02:14.909Z,68.73
2022-12-10T19:04:43.115Z,54.33
2022-12-10T19:07:13.548Z,53.80
2022-12-10T19:09:42.654Z,60.03
2022-12-10T19:12:11.223Z,53.87
2022-12-10T19:14:38.827Z,56.47
2022-12-10T19:17:06.383Z,57.03
2022-12-10T19:19:33.987Z,51.70
2022-12-10T19:22:02.202Z,61.20
2022-12-10T19:24:29.818Z,61.83
2022-12-10T19:26:57.548Z,61.27
2022-12-10T19:29:25.503Z,51.50
2022-12-10T19:31:53.517Z,62.47
2022-12-10T19:34:22.436Z,62.77
2022-12-10T19:36:50.598Z,58.47
2022-12-10T19:39:24.305Z,54.47
2022-12-10T19:41:55.417Z,54.33
2022-12-10T19:44:23.239Z,52.13
2022-12-10T19:46:52.240Z,54.23
2022-12-10T19:49:22.186Z,62.10
2022-12-10T19:51:50.578Z,52.17
2022-12-10T19:54:18.309Z,63.40
2022-12-10T19:56:46.088Z,57.80
2022-12-10T19:59:21.298Z,55.93
2022-12-10T20:01:49.131Z,66.97
2022-12-10T20:04:18.451Z,65.67
2022-12-10T20:06:49.903Z,64.83
2022-12-10T20:09:27.582Z,55.50
2022-12-10T20:11:56.500Z,61.30
2022-12-10T20:14:24.726Z,60.73
2022-12-10T20:16:54.161Z,55.67
2022-12-10T20:19:25.393Z,61.10
2022-12-10T20:21:54.063Z,57.97
2022-12-10T20:24:22.500Z,76.43
2022-12-10T20:26:51.055Z,64.83
2022-12-10T20:29:27.374Z,67.20
2022-12-10T20:31:58.166Z,64.50
2022-12-10T20:34:26.697Z,82.87
2022-12-10T20:36:54.778Z,64.93
2022-12-10T20:39:34.686Z,62.17
2022-12-10T20:42:04.732Z,63.33
2022-12-10T20:44:32.662Z,67.10
2022-12-10T20:47:00.656Z,71.43
2022-12-10T20:49:29.307Z,55.77
2022-12-10T20:51:57.009Z,64.57
2022-12-10T20:54:24.659Z,58.20
2022-12-10T20:56:54.276Z,56.57
2022-12-10T20:59:22.716Z,67.00
2022-12-10T21:01:50.529Z,68.40
2022-12-10T21:04:18.213Z,56.37
2022-12-10T21:06:46.476Z,63.70
2022-12-10T21:09:14.458Z,58.27
2022-12-10T21:11:42.079Z,63.30
2022-12-10T21:14:44.049Z,63.33
2022-12-10T21:16:58.834Z,67.83
2022-12-10T21:19:28.318Z,75.97
2022-12-10T21:21:56.566Z,76.07
2022-12-10T21:24:24.609Z,67.00
2022-12-10T21:26:52.313Z,78.13
2022-12-10T21:29:19.910Z,78.53
2022-12-10T21:31:47.756Z,85.97
2022-12-10T21:34:15.384Z,77.67
2022-12-10T21:36:42.937Z,81.30
2022-12-10T21:39:10.620Z,74.17
2022-12-10T21:41:57.384Z,87.60
2022-12-10T21:44:25.039Z,79.40
2022-12-10T21:46:52.792Z,68.13
2022-12-10T21:49:20.456Z,77.20
2022-12-10T21:51:48.135Z,75.60
2022-12-10T21:54:15.814Z,80.20
2022-12-10T21:56:43.459Z,68.77
2022-12-10T21:59:11.150Z,72.97
2022-12-10T22:01:38.802Z,64.33
2022-12-10T22:04:06.464Z,68.03
2022-12-10T22:06:34.089Z,75.77
2022-12-10T22:09:01.691Z,76.80
2022-12-10T22:11:29.484Z,70.97
2022-12-10T22:13:57.230Z,75.53
2022-12-10T22:16:24.936Z,69.57
2022-12-10T22:18:53.991Z,70.87
2022-12-10T22:21:23.840Z,82.20
2022-12-10T22:23:55.485Z,82.33
2022-12-10T22:26:23.560Z,99.03
2022-12-10T22:28:52.020Z,96.10
2022-12-10T22:31:20.227Z,111.13
2022-12-10T22:33:48.046Z,111.87
2022-12-10T22:36:16.319Z,114.40
2022-12-10T22:38:44.192Z,99.00
2022-12-10T22:41:12.185Z,115.87
2022-12-10T22:43:55.050Z,94.03
2022-12-10T22:46:22.777Z,95.30
2022-12-10T22:48:51.154Z,95.07
2022-12-10T22:51:19.194Z,110.37
2022-12-10T22:53:47.028Z,104.77
2022-12-10T22:56:16.663Z,110.63
2022-12-10T22:58:45.734Z,112.67
2022-12-10T23:01:20.677Z,99.50
2022-12-10T23:03:53.288Z,112.43
2022-12-10T23:06:23.751Z,93.27
2022-12-10T23:08:51.898Z,91.10
2022-12-10T23:11:19.649Z,80.63
2022-12-10T23:13:47.372Z,84.03
2022-12-10T23:16:19.208Z,96.23
2022-12-10T23:18:51.271Z,95.80
2022-12-10T23:21:26.927Z,82.03
2022-12-10T23:23:55.527Z,66.30
2022-12-10T23:26:23.348Z,79.90
2022-12-10T23:28:51.514Z,79.53
2022-12-10T23:31:19.941Z,68.47
2022-12-10T23:33:47.722Z,66.37
2022-12-10T23:36:15.984Z,64.27
2022-12-10T23:38:43.703Z,71.10
2022-12-10T23:41:13.026Z,80.60
2022-12-10T23:43:41.593Z,63.27
2022-12-10T23:46:09.450Z,66.40
2022-12-10T23:48:37.760Z,57.80
2022-12-10T23:51:07.182Z,61.33
2022-12-10T23:53:35.063Z,73.30
2022-12-10T23:56:19.704Z,61.20
2022-12-10T23:58:49.322Z,55.60
